Time;durP1;ratioP1;P1;durP2;ratioP2;P2;SDS_P1;SDS_P2;PMS_P1;PMS_P2;Temp;Humidity;BMP_temperature;BMP_pressure;BME280_temperature;BME280_humidity;BME280_pressure;Samples;Min_cycle;Max_cycle;Signal;HPM_P1;HPM_P2
2022/11/28 00:01:30;;;;;;;;;;;5.90;99.90;;;;;;5095592;28;20015;-68
2022/11/28 00:03:55;;;;;;;;;;;5.80;99.90;;;;;;5095594;28;19924;-67
2022/11/28 00:06:21;;;;;;;;;;;5.80;99.90;;;;;;5095587;28;19924;-73
2022/11/28 00:08:47;;;;;;;;;;;5.70;99.90;;;;;;5094836;28;20616;-68
2022/11/28 00:11:13;;;;;;;;;;;5.70;99.90;;;;;;5094550;28;19996;-68
2022/11/28 00:13:39;;;;;;;;;;;5.80;99.90;;;;;;5094863;28;19946;-67
2022/11/28 00:16:06;;;;;;;;;;;5.90;99.90;;;;;;5095225;28;20361;-69
2022/11/28 00:18:31;;;;;;;;;;;5.80;99.90;;;;;;5093849;28;19927;-67
2022/11/28 00:21:04;;;;;;;;;;;5.80;99.90;;;;;;5095222;28;20373;-67
2022/11/28 00:23:30;;;;;;;;;;;5.80;99.90;;;;;;5093971;28;19996;-68
2022/11/28 00:25:57;;;;;;;;;;;5.80;99.90;;;;;;5095057;28;19924;-67
2022/11/28 00:28:23;;;;;;;;;;;5.80;99.90;;;;;;5095110;28;20023;-70
2022/11/28 00:30:48;;;;;;;;;;;5.80;99.90;;;;;;5094612;28;19989;-66
2022/11/28 00:33:14;;;;;;;;;;;5.80;99.90;;;;;;5093840;28;19931;-68
2022/11/28 00:35:40;;;;;;;;;;;5.80;99.90;;;;;;5093743;28;19934;-67
2022/11/28 00:38:05;;;;;;;;;;;5.80;99.90;;;;;;5094947;28;20282;-67
2022/11/28 00:40:31;;;;;;;;;;;5.80;99.90;;;;;;5094353;28;20011;-77
2022/11/28 00:42:56;;;;;;;;;;;5.80;99.90;;;;;;5076868;28;19931;-66
2022/11/28 00:45:22;;;;;;;;;;;5.80;99.90;;;;;;5127420;27;20025;-67
2022/11/28 00:47:48;;;;;;;;;;;5.80;99.90;;;;;;5093339;28;19998;-67
2022/11/28 00:50:14;;;;;;;;;;;5.80;99.90;;;;;;5109827;28;19946;-67
2022/11/28 00:52:39;;;;;;;;;;;5.80;99.90;;;;;;5094168;28;19978;-71
2022/11/28 00:55:05;;;;;;;;;;;5.80;99.90;;;;;;5127487;27;20365;-67
2022/11/28 00:57:31;;;;;;;;;;;5.90;99.90;;;;;;5076789;28;19928;-68
2022/11/28 00:59:56;;;;;;;;;;;5.90;99.90;;;;;;5094095;28;19924;-67
2022/11/28 01:02:22;;;;;;;;;;;6.10;99.90;;;;;;5094385;28;19924;-66
2022/11/28 01:04:47;;;;;;;;;;;5.90;99.90;;;;;;5094078;28;19974;-67
2022/11/28 01:07:13;;;;;;;;;;;5.90;99.90;;;;;;5094497;28;19928;-67
2022/11/28 01:09:38;;;;;;;;;;;5.90;99.90;;;;;;5092894;28;19979;-67
2022/11/28 01:12:04;;;;;;;;;;;5.90;99.90;;;;;;5094179;28;19928;-67
2022/11/28 01:14:30;;;;;;;;;;;5.90;99.90;;;;;;5093199;28;19924;-70
2022/11/28 01:16:55;;;;;;;;;;;5.90;99.90;;;;;;5093853;28;19946;-67
2022/11/28 01:19:21;;;;;;;;;;;5.90;99.90;;;;;;5093200;28;19931;-67
2022/11/28 01:21:47;;;;;;;;;;;5.90;99.90;;;;;;5092276;28;19977;-68
2022/11/28 01:24:13;;;;;;;;;;;5.90;99.90;;;;;;5092763;28;19931;-66
2022/11/28 01:26:39;;;;;;;;;;;5.90;99.90;;;;;;5092868;28;19924;-77
2022/11/28 01:29:05;;;;;;;;;;;5.90;99.90;;;;;;5092902;28;19924;-67
2022/11/28 01:31:31;;;;;;;;;;;5.90;99.90;;;;;;5093959;28;20403;-67
2022/11/28 01:33:57;;;;;;;;;;;6.00;99.90;;;;;;5092036;28;19928;-67
2022/11/28 01:36:23;;;;;;;;;;;5.90;99.90;;;;;;5093915;28;19923;-68
2022/11/28 01:38:49;;;;;;;;;;;5.90;99.90;;;;;;5093380;28;19931;-67
2022/11/28 01:41:15;;;;;;;;;;;6.00;99.90;;;;;;5093778;28;19928;-67
2022/11/28 01:43:59;;;;;;;;;;;5.90;99.90;;;;;;5092458;28;19925;-76
2022/11/28 01:46:25;;;;;;;;;;;5.90;99.90;;;;;;5093730;28;19977;-68
2022/11/28 01:48:51;;;;;;;;;;;6.00;99.90;;;;;;5093318;28;20011;-67
2022/11/28 01:51:17;;;;;;;;;;;6.00;99.90;;;;;;5126213;27;19946;-67
2022/11/28 01:53:44;;;;;;;;;;;6.00;99.90;;;;;;5093001;28;19923;-76
2022/11/28 01:56:16;;;;;;;;;;;6.00;99.90;;;;;;5093401;28;19924;-67
2022/11/28 01:58:44;;;;;;;;;;;6.00;99.90;;;;;;5092022;28;19930;-76
2022/11/28 02:01:10;;;;;;;;;;;6.00;99.90;;;;;;5092289;28;19925;-67
2022/11/28 02:03:39;;;;;;;;;;;6.00;99.90;;;;;;5093242;28;19971;-68
2022/11/28 02:06:05;;;;;;;;;;;6.00;99.90;;;;;;5091727;28;20018;-67
2022/11/28 02:08:32;;;;;;;;;;;6.00;99.90;;;;;;5092974;28;20026;-69
2022/11/28 02:11:17;;;;;;;;;;;6.10;99.90;;;;;;5092138;28;19928;-67
2022/11/28 02:14:01;;;;;;;;;;;6.10;99.90;;;;;;5092609;28;20335;-67
2022/11/28 02:16:35;;;;;;;;;;;6.00;99.90;;;;;;5092868;28;19931;-69
2022/11/28 02:19:04;;;;;;;;;;;6.10;99.90;;;;;;5090740;28;20373;-67
2022/11/28 02:21:34;;;;;;;;;;;6.10;99.90;;;;;;5091720;28;19924;-66
2022/11/28 02:24:21;;;;;;;;;;;6.00;99.90;;;;;;5125067;27;19930;-68
2022/11/28 02:26:50;;;;;;;;;;;6.10;99.90;;;;;;5091388;28;19928;-74
2022/11/28 02:29:22;;;;;;;;;;;6.10;99.90;;;;;;5091440;28;20457;-66
2022/11/28 02:32:00;;;;;;;;;;;6.10;99.90;;;;;;5092448;28;19928;-74
2022/11/28 02:34:44;;;;;;;;;;;6.00;99.90;;;;;;5092527;28;19968;-66
2022/11/28 02:37:18;;;;;;;;;;;6.00;99.90;;;;;;5092352;28;19971;-68
2022/11/28 02:39:44;;;;;;;;;;;6.10;99.90;;;;;;5125696;27;20419;-67
2022/11/28 02:42:28;;;;;;;;;;;6.00;99.90;;;;;;5108055;28;20014;-67
2022/11/28 02:45:00;;;;;;;;;;;6.00;99.90;;;;;;5092227;28;20014;-67
2022/11/28 02:47:28;;;;;;;;;;;6.00;99.90;;;;;;5091670;28;19924;-67
2022/11/28 02:50:00;;;;;;;;;;;6.10;99.90;;;;;;5090959;28;19934;-67
2022/11/28 02:52:37;;;;;;;;;;;6.00;99.90;;;;;;5091559;28;19975;-69
2022/11/28 02:55:04;;;;;;;;;;;6.00;99.90;;;;;;5092009;28;19947;-68
2022/11/28 02:57:46;;;;;;;;;;;6.10;99.90;;;;;;5091366;28;20272;-67
2022/11/28 03:00:21;;;;;;;;;;;6.00;99.90;;;;;;5092006;28;19971;-68
2022/11/28 03:02:49;;;;;;;;;;;6.10;99.90;;;;;;5092581;28;20331;-68
2022/11/28 03:05:14;;;;;;;;;;;6.10;99.90;;;;;;5091800;28;19924;-68
2022/11/28 03:07:49;;;;;;;;;;;6.10;99.90;;;;;;5091350;28;19924;-67
2022/11/28 03:10:15;;;;;;;;;;;6.00;99.90;;;;;;5091682;28;19932;-67
2022/11/28 03:12:46;;;;;;;;;;;6.00;99.90;;;;;;5092274;28;19924;-67
2022/11/28 03:15:15;;;;;;;;;;;6.10;99.90;;;;;;5090807;28;20474;-67
2022/11/28 03:18:16;;;;;;;;;;;6.00;99.90;;;;;;5092137;28;19928;-69
2022/11/28 03:20:46;;;;;;;;;;;6.00;99.90;;;;;;5049144;28;19925;-69
2022/11/28 03:23:16;;;;;;;;;;;6.00;99.90;;;;;;5084314;28;19924;-68
2022/11/28 03:25:50;;;;;;;;;;;6.00;99.90;;;;;;5091960;28;19939;-68
2022/11/28 03:28:25;;;;;;;;;;;6.00;99.90;;;;;;5091687;28;20020;-76
2022/11/28 03:30:53;;;;;;;;;;;6.00;99.90;;;;;;5093263;28;19928;-68
2022/11/28 03:33:21;;;;;;;;;;;6.10;99.90;;;;;;5096079;28;20357;-67
2022/11/28 03:35:52;;;;;;;;;;;6.10;99.90;;;;;;5096220;28;20373;-69
2022/11/28 03:38:24;;;;;;;;;;;6.10;99.90;;;;;;5111628;28;19924;-68
2022/11/28 03:40:52;;;;;;;;;;;6.10;99.90;;;;;;5096171;28;19982;-68
2022/11/28 03:43:26;;;;;;;;;;;6.80;99.90;;;;;;5095467;28;20385;-68
2022/11/28 03:45:54;;;;;;;;;;;6.10;99.90;;;;;;5095919;28;19977;-68
2022/11/28 03:48:25;;;;;;;;;;;6.10;99.90;;;;;;5128490;27;20014;-68
2022/11/28 03:50:57;;;;;;;;;;;6.20;99.90;;;;;;5095378;28;20384;-68
2022/11/28 03:53:25;;;;;;;;;;;6.30;99.90;;;;;;5096002;28;19924;-67
2022/11/28 03:55:55;;;;;;;;;;;6.20;99.90;;;;;;5094757;28;19966;-68
2022/11/28 03:58:21;;;;;;;;;;;6.20;99.90;;;;;;5128429;27;19924;-69
2022/11/28 04:00:50;;;;;;;;;;;6.20;99.90;;;;;;5095472;28;19935;-68
2022/11/28 04:03:31;;;;;;;;;;;6.40;99.90;;;;;;5095082;28;20400;-68
2022/11/28 04:06:03;;;;;;;;;;;6.20;99.90;;;;;;5095692;28;19924;-68
2022/11/28 04:08:31;;;;;;;;;;;6.20;99.90;;;;;;5095448;28;19924;-68
2022/11/28 04:11:02;;;;;;;;;;;6.30;99.90;;;;;;5095616;28;19924;-70
2022/11/28 04:13:48;;;;;;;;;;;6.20;99.90;;;;;;5128366;27;19928;-69
2022/11/28 04:16:19;;;;;;;;;;;6.20;99.90;;;;;;5128360;27;19930;-68
2022/11/28 04:18:55;;;;;;;;;;;6.30;99.90;;;;;;5094243;28;19924;-68
2022/11/28 04:21:24;;;;;;;;;;;6.30;99.90;;;;;;5094951;28;19924;-68
2022/11/28 04:23:51;;;;;;;;;;;6.30;99.90;;;;;;5094395;28;19924;-68
2022/11/28 04:26:28;;;;;;;;;;;6.30;99.90;;;;;;5094826;28;20011;-68
2022/11/28 04:28:55;;;;;;;;;;;6.40;99.90;;;;;;5095067;28;19928;-70
2022/11/28 04:31:22;;;;;;;;;;;6.40;99.90;;;;;;5094945;28;19996;-68
2022/11/28 04:33:51;;;;;;;;;;;6.40;99.90;;;;;;5093966;28;19935;-68
2022/11/28 04:36:19;;;;;;;;;;;6.40;99.90;;;;;;5093950;28;20030;-68
2022/11/28 04:38:53;;;;;;;;;;;6.40;99.90;;;;;;5095118;28;19931;-68
2022/11/28 04:41:20;;;;;;;;;;;6.50;99.90;;;;;;5076553;28;19924;-67
2022/11/28 04:43:52;;;;;;;;;;;6.50;99.90;;;;;;5094794;28;19979;-68
2022/11/28 04:46:20;;;;;;;;;;;6.50;99.90;;;;;;5094855;28;19983;-68
2022/11/28 04:48:46;;;;;;;;;;;6.50;99.90;;;;;;5110696;28;19924;-67
2022/11/28 04:51:18;;;;;;;;;;;6.50;99.90;;;;;;5126326;27;20011;-68
2022/11/28 04:54:02;;;;;;;;;;;6.50;99.90;;;;;;5093588;28;20297;-68
2022/11/28 04:56:31;;;;;;;;;;;6.50;99.90;;;;;;5109285;28;20053;-71
2022/11/28 04:58:57;;;;;;;;;;;6.60;99.90;;;;;;5093508;28;19924;-68
2022/11/28 05:01:30;;;;;;;;;;;6.50;99.90;;;;;;5093330;28;19924;-68
2022/11/28 05:03:55;;;;;;;;;;;6.60;99.90;;;;;;5126281;28;20031;-69
2022/11/28 05:06:25;;;;;;;;;;;6.60;99.90;;;;;;5126150;28;20018;-68
2022/11/28 05:08:51;;;;;;;;;;;6.60;99.90;;;;;;5092489;28;20006;-69
2022/11/28 05:11:16;;;;;;;;;;;6.60;99.90;;;;;;5091990;28;19963;-68
2022/11/28 05:13:42;;;;;;;;;;;6.70;99.90;;;;;;5093274;28;19979;-70
2022/11/28 05:16:08;;;;;;;;;;;6.70;99.90;;;;;;5093317;28;20350;-79
2022/11/28 05:18:34;;;;;;;;;;;6.70;99.90;;;;;;5093188;28;19931;-69
2022/11/28 05:21:00;;;;;;;;;;;6.70;99.90;;;;;;5091908;28;19924;-69
2022/11/28 05:23:25;;;;;;;;;;;6.70;99.90;;;;;;5092890;28;19924;-69
2022/11/28 05:25:51;;;;;;;;;;;6.70;99.90;;;;;;5093028;28;19931;-69
2022/11/28 05:28:17;;;;;;;;;;;6.90;99.90;;;;;;5125720;28;19935;-68
2022/11/28 05:30:42;;;;;;;;;;;6.90;99.90;;;;;;5093054;28;19924;-71
2022/11/28 05:33:08;;;;;;;;;;;6.90;99.90;;;;;;5125919;28;19924;-68
2022/11/28 05:35:33;;;;;;;;;;;7.00;99.90;;;;;;5091671;28;19970;-68
2022/11/28 05:37:59;;;;;;;;;;;6.90;99.90;;;;;;5126267;28;19924;-68
2022/11/28 05:40:24;;;;;;;;;;;6.90;99.90;;;;;;5092794;28;19924;-71
2022/11/28 05:42:50;;;;;;;;;;;6.90;99.90;;;;;;5125792;28;19924;-68
2022/11/28 05:45:15;;;;;;;;;;;6.90;99.90;;;;;;5092690;28;20389;-68
2022/11/28 05:47:41;;;;;;;;;;;7.00;99.90;;;;;;5092903;28;19924;-68
2022/11/28 05:52:15;;;;;;;;;;;7.00;99.90;;;;;;5079338;27;19957;-78
2022/11/28 05:54:40;;;;;;;;;;;7.00;99.90;;;;;;5068607;27;20322;-70
2022/11/28 05:57:06;;;;;;;;;;;7.00;99.90;;;;;;5080622;28;20366;-68
2022/11/28 05:59:32;;;;;;;;;;;7.00;99.90;;;;;;5064213;28;19924;-68
2022/11/28 06:01:57;;;;;;;;;;;7.00;99.90;;;;;;5080347;27;20005;-68
2022/11/28 06:04:23;;;;;;;;;;;6.90;99.90;;;;;;5064803;28;19929;-67
2022/11/28 06:06:49;;;;;;;;;;;7.00;99.90;;;;;;5063512;28;19933;-67
2022/11/28 06:09:15;;;;;;;;;;;7.10;99.90;;;;;;5063335;28;19925;-79
2022/11/28 06:11:40;;;;;;;;;;;7.10;99.90;;;;;;5029064;28;19932;-68
2022/11/28 06:14:06;;;;;;;;;;;7.10;99.90;;;;;;5065245;28;20020;-68
2022/11/28 06:16:32;;;;;;;;;;;7.20;99.90;;;;;;5063528;28;20029;-68
2022/11/28 06:19:02;;;;;;;;;;;7.10;99.90;;;;;;5059863;27;20331;-69
2022/11/28 06:21:28;;;;;;;;;;;7.10;99.90;;;;;;5063829;28;19964;-68
2022/11/28 06:23:55;;;;;;;;;;;7.10;99.90;;;;;;5065554;28;19944;-70
2022/11/28 06:26:21;;;;;;;;;;;7.20;99.90;;;;;;5063717;28;19925;-69
2022/11/28 06:28:47;;;;;;;;;;;7.20;99.90;;;;;;5046022;27;20341;-67
2022/11/28 06:31:17;;;;;;;;;;;7.30;99.90;;;;;;5064001;28;19924;-67
2022/11/28 06:33:43;;;;;;;;;;;7.20;99.90;;;;;;5078973;27;19936;-69
2022/11/28 06:36:09;;;;;;;;;;;7.20;99.90;;;;;;5048146;27;20373;-69
2022/11/28 06:38:35;;;;;;;;;;;7.20;99.90;;;;;;5063473;28;20046;-69
2022/11/28 06:41:02;;;;;;;;;;;7.20;99.90;;;;;;5045961;28;20409;-69
2022/11/28 06:43:28;;;;;;;;;;;7.20;99.90;;;;;;5045607;28;20003;-72
2022/11/28 06:45:53;;;;;;;;;;;7.20;99.90;;;;;;5064493;28;20061;-68
2022/11/28 06:48:19;;;;;;;;;;;7.20;99.90;;;;;;5057534;28;19928;-69
2022/11/28 06:50:45;;;;;;;;;;;7.20;99.90;;;;;;5044920;27;20020;-69
2022/11/28 06:53:10;;;;;;;;;;;7.20;99.90;;;;;;5063759;27;19924;-68
2022/11/28 06:55:36;;;;;;;;;;;7.20;99.90;;;;;;5063374;27;20373;-69
2022/11/28 06:58:02;;;;;;;;;;;7.20;99.90;;;;;;5056365;28;19924;-71
2022/11/28 07:00:27;;;;;;;;;;;7.20;99.90;;;;;;5056423;27;19924;-68
2022/11/28 07:02:53;;;;;;;;;;;7.20;99.90;;;;;;5063812;28;20333;-68
2022/11/28 07:05:20;;;;;;;;;;;7.30;99.90;;;;;;5044013;28;20399;-67
2022/11/28 07:07:45;;;;;;;;;;;7.30;99.90;;;;;;5048339;27;19928;-68
2022/11/28 07:10:11;;;;;;;;;;;7.20;99.90;;;;;;5056943;28;20011;-68
2022/11/28 07:12:37;;;;;;;;;;;7.30;99.90;;;;;;5041702;28;19933;-68
2022/11/28 07:15:05;;;;;;;;;;;7.30;99.90;;;;;;5048220;28;19936;-67
2022/11/28 07:17:30;;;;;;;;;;;7.30;99.90;;;;;;5028755;28;20443;-68
2022/11/28 07:19:56;;;;;;;;;;;7.30;99.90;;;;;;5062887;28;19933;-68
2022/11/28 07:22:22;;;;;;;;;;;7.30;99.90;;;;;;5065234;27;19924;-67
2022/11/28 07:24:47;;;;;;;;;;;7.30;99.90;;;;;;5049064;28;19925;-70
2022/11/28 07:27:13;;;;;;;;;;;7.30;99.90;;;;;;5065159;27;19932;-68
2022/11/28 07:29:38;;;;;;;;;;;7.30;99.90;;;;;;5064404;27;19947;-67
2022/11/28 07:32:05;;;;;;;;;;;7.30;99.90;;;;;;5048459;27;19936;-67
2022/11/28 07:34:31;;;;;;;;;;;7.40;99.90;;;;;;5039819;28;19949;-67
2022/11/28 07:36:56;;;;;;;;;;;7.40;99.90;;;;;;5050119;27;19929;-67
2022/11/28 07:39:22;;;;;;;;;;;7.40;99.90;;;;;;5042752;28;19947;-66
2022/11/28 07:41:48;;;;;;;;;;;7.40;99.90;;;;;;5046279;28;20067;-66
2022/11/28 07:44:16;;;;;;;;;;;7.40;99.90;;;;;;5045333;28;19967;-67
2022/11/28 07:46:43;;;;;;;;;;;7.40;99.90;;;;;;5042229;28;19930;-67
2022/11/28 07:49:08;;;;;;;;;;;7.40;99.90;;;;;;5048940;28;19924;-68
2022/11/28 07:51:34;;;;;;;;;;;7.40;99.90;;;;;;5020813;28;19933;-68
2022/11/28 07:54:00;;;;;;;;;;;7.40;99.90;;;;;;5059055;28;19961;-68
2022/11/28 07:56:27;;;;;;;;;;;7.40;99.90;;;;;;5025229;28;19933;-67
2022/11/28 07:58:53;;;;;;;;;;;7.40;99.90;;;;;;5044438;28;19972;-68
2022/11/28 08:01:20;;;;;;;;;;;7.40;99.90;;;;;;5026159;28;20657;-67
2022/11/28 08:03:46;;;;;;;;;;;7.40;99.90;;;;;;5026437;28;20389;-67
2022/11/28 08:06:12;;;;;;;;;;;7.40;99.90;;;;;;5043278;28;19929;-67
2022/11/28 08:08:38;;;;;;;;;;;7.40;99.90;;;;;;5055936;28;19935;-67
2022/11/28 08:11:05;;;;;;;;;;;7.40;99.90;;;;;;5029951;28;19929;-70
2022/11/28 08:13:30;;;;;;;;;;;7.40;99.90;;;;;;5038537;27;19936;-68
2022/11/28 08:15:56;;;;;;;;;;;7.50;99.90;;;;;;5051174;28;19937;-68
2022/11/28 08:18:22;;;;;;;;;;;7.50;99.90;;;;;;5058633;28;19925;-68
2022/11/28 08:20:47;;;;;;;;;;;7.50;99.90;;;;;;5014235;28;19925;-68
2022/11/28 08:23:13;;;;;;;;;;;7.90;99.90;;;;;;5064362;27;19961;-68
2022/11/28 08:25:39;;;;;;;;;;;7.40;99.90;;;;;;5046852;28;20441;-67
2022/11/28 08:28:04;;;;;;;;;;;7.40;99.90;;;;;;5048735;28;19929;-68
2022/11/28 08:30:30;;;;;;;;;;;7.50;99.90;;;;;;5030855;28;19925;-68
2022/11/28 08:32:55;;;;;;;;;;;7.50;99.90;;;;;;5066879;28;20682;-68
2022/11/28 08:35:21;;;;;;;;;;;7.50;99.90;;;;;;5043696;27;20118;-70
2022/11/28 08:37:47;;;;;;;;;;;7.50;99.90;;;;;;5040807;28;20028;-69
2022/11/28 08:40:13;;;;;;;;;;;7.50;99.90;;;;;;5038983;28;19925;-70
2022/11/28 08:42:38;;;;;;;;;;;7.50;99.90;;;;;;5051070;27;20439;-69
2022/11/28 08:45:05;;;;;;;;;;;7.50;99.90;;;;;;5040350;27;19925;-69
2022/11/28 08:47:30;;;;;;;;;;;7.50;99.90;;;;;;5055864;28;19925;-70
2022/11/28 08:49:56;;;;;;;;;;;7.50;99.90;;;;;;5023535;28;20781;-69
2022/11/28 08:52:22;;;;;;;;;;;7.50;99.90;;;;;;5045997;28;19973;-69
2022/11/28 08:54:47;;;;;;;;;;;7.60;99.90;;;;;;5043310;27;20040;-69
2022/11/28 08:57:13;;;;;;;;;;;7.50;99.90;;;;;;5045000;28;19925;-70
2022/11/28 08:59:38;;;;;;;;;;;7.60;99.90;;;;;;5045160;28;19925;-76
2022/11/28 09:02:04;;;;;;;;;;;7.60;99.90;;;;;;5034299;28;19970;-69
2022/11/28 09:04:30;;;;;;;;;;;7.50;99.90;;;;;;5044746;27;19971;-71
2022/11/28 09:06:55;;;;;;;;;;;7.60;99.90;;;;;;5061975;27;20396;-69
2022/11/28 09:09:21;;;;;;;;;;;7.60;99.90;;;;;;5023824;28;20446;-70
2022/11/28 09:11:46;;;;;;;;;;;7.60;99.90;;;;;;5053200;28;19939;-69
2022/11/28 09:14:12;;;;;;;;;;;7.60;99.90;;;;;;5052135;27;20277;-69
2022/11/28 09:16:38;;;;;;;;;;;7.60;99.90;;;;;;5046649;28;19976;-70
2022/11/28 09:19:05;;;;;;;;;;;7.60;99.90;;;;;;5057624;27;19971;-68
2022/11/28 09:21:31;;;;;;;;;;;7.60;99.90;;;;;;5046495;28;19924;-68
2022/11/28 09:23:57;;;;;;;;;;;7.60;99.90;;;;;;5045567;28;19997;-68
2022/11/28 09:26:24;;;;;;;;;;;7.70;99.90;;;;;;5032365;28;20318;-68
2022/11/28 09:28:49;;;;;;;;;;;7.70;99.90;;;;;;5062727;27;19924;-68
2022/11/28 09:31:16;;;;;;;;;;;7.70;99.90;;;;;;5062925;28;19925;-69
2022/11/28 09:33:42;;;;;;;;;;;7.70;99.90;;;;;;5054225;27;19990;-69
2022/11/28 09:36:09;;;;;;;;;;;7.50;99.90;;;;;;5025042;28;20025;-70
2022/11/28 09:38:35;;;;;;;;;;;7.70;99.90;;;;;;5055360;28;20051;-70
2022/11/28 09:41:01;;;;;;;;;;;7.70;99.90;;;;;;5017481;28;19924;-68
2022/11/28 09:43:33;;;;;;;;;;;7.70;99.90;;;;;;5018694;28;19929;-68
2022/11/28 09:46:00;;;;;;;;;;;7.70;99.90;;;;;;5059023;28;19924;-68
2022/11/28 09:48:33;;;;;;;;;;;7.70;99.90;;;;;;5036507;28;20021;-68
2022/11/28 09:51:21;;;;;;;;;;;7.70;99.90;;;;;;5039029;28;20255;-68
2022/11/28 09:53:54;;;;;;;;;;;7.70;99.90;;;;;;5045650;28;19968;-68
2022/11/28 09:56:20;;;;;;;;;;;7.80;99.90;;;;;;5039510;28;19935;-67
2022/11/28 09:58:49;;;;;;;;;;;7.80;99.90;;;;;;5031589;28;20282;-68
2022/11/28 10:01:14;;;;;;;;;;;7.80;99.90;;;;;;5041787;28;20331;-68
2022/11/28 10:03:44;;;;;;;;;;;7.80;99.90;;;;;;5035867;28;19924;-67
2022/11/28 10:06:23;;;;;;;;;;;7.80;99.90;;;;;;5040521;28;19972;-67
2022/11/28 10:08:54;;;;;;;;;;;7.80;99.90;;;;;;5040643;28;19924;-69
2022/11/28 10:11:23;;;;;;;;;;;7.80;99.90;;;;;;5047059;28;19929;-67
2022/11/28 10:14:12;;;;;;;;;;;7.80;99.90;;;;;;5062023;27;19928;-68
2022/11/28 10:16:49;;;;;;;;;;;7.80;99.90;;;;;;5053005;28;19979;-68
2022/11/28 10:19:21;;;;;;;;;;;7.80;99.90;;;;;;5040605;27;19932;-68
2022/11/28 10:21:48;;;;;;;;;;;7.80;99.90;;;;;;5046954;28;19936;-68
2022/11/28 10:24:19;;;;;;;;;;;8.00;99.90;;;;;;5042433;28;19932;-68
2022/11/28 10:26:50;;;;;;;;;;;7.80;99.90;;;;;;5060228;27;20016;-69
2022/11/28 10:29:28;;;;;;;;;;;7.80;99.90;;;;;;5045686;27;19936;-68
2022/11/28 10:31:56;;;;;;;;;;;7.80;99.90;;;;;;5042925;28;19993;-68
2022/11/28 10:34:40;;;;;;;;;;;7.80;99.90;;;;;;5022088;28;19925;-70
2022/11/28 10:37:32;;;;;;;;;;;7.90;99.90;;;;;;5060361;28;19982;-68
2022/11/28 10:40:10;;;;;;;;;;;7.90;99.90;;;;;;5052819;27;19989;-68
2022/11/28 10:42:42;;;;;;;;;;;7.90;99.90;;;;;;5025263;28;19929;-70
2022/11/28 10:45:26;;;;;;;;;;;7.90;99.90;;;;;;5039564;28;19978;-73
2022/11/28 10:47:58;;;;;;;;;;;7.90;99.90;;;;;;5029958;28;19932;-71
2022/11/28 10:50:26;;;;;;;;;;;7.90;99.90;;;;;;5050045;28;19927;-70
2022/11/28 10:53:15;;;;;;;;;;;8.00;99.90;;;;;;5031017;28;19929;-73
2022/11/28 10:55:56;;;;;;;;;;;8.00;99.90;;;;;;5057689;28;20409;-69
2022/11/28 10:58:23;;;;;;;;;;;8.00;99.90;;;;;;5060562;28;19925;-68
2022/11/28 11:00:52;;;;;;;;;;;8.00;99.90;;;;;;5046411;28;19968;-68
2022/11/28 11:03:21;;;;;;;;;;;8.00;99.90;;;;;;5051221;27;20012;-68
2022/11/28 11:05:46;;;;;;;;;;;7.50;99.90;;;;;;5048418;28;19993;-68
2022/11/28 11:08:12;;;;;;;;;;;8.00;99.90;;;;;;5064811;28;19936;-68
2022/11/28 11:10:40;;;;;;;;;;;8.00;99.90;;;;;;5031732;28;20011;-69
2022/11/28 11:13:20;;;;;;;;;;;8.10;99.90;;;;;;5052529;28;20386;-69
2022/11/28 11:15:47;;;;;;;;;;;8.10;99.90;;;;;;5057006;28;19931;-68
2022/11/28 11:18:39;;;;;;;;;;;8.10;99.90;;;;;;5016683;28;19926;-67
2022/11/28 11:21:05;;;;;;;;;;;8.10;99.90;;;;;;5049384;28;19947;-67
2022/11/28 11:23:31;;;;;;;;;;;8.10;99.90;;;;;;5032337;28;19929;-66
2022/11/28 11:25:57;;;;;;;;;;;8.20;99.90;;;;;;5049203;28;20028;-70
2022/11/28 11:28:31;;;;;;;;;;;8.20;99.90;;;;;;5046991;28;19925;-67
2022/11/28 11:30:59;;;;;;;;;;;8.20;99.90;;;;;;5064264;28;20343;-67
2022/11/28 11:33:27;;;;;;;;;;;8.20;99.90;;;;;;5048805;28;20450;-68
2022/11/28 11:35:53;;;;;;;;;;;8.20;99.90;;;;;;5031810;28;20027;-70
2022/11/28 11:38:22;;;;;;;;;;;8.20;99.90;;;;;;5065018;28;20409;-68
2022/11/28 11:40:48;;;;;;;;;;;8.20;99.90;;;;;;5050486;28;19968;-69
2022/11/28 11:43:28;;;;;;;;;;;8.20;99.90;;;;;;5032481;28;20020;-68
2022/11/28 11:46:20;;;;;;;;;;;8.20;99.90;;;;;;5049177;28;19964;-67
2022/11/28 11:48:51;;;;;;;;;;;8.30;99.90;;;;;;5063673;28;19924;-67
2022/11/28 11:51:20;;;;;;;;;;;8.30;99.90;;;;;;5023259;28;19986;-67
2022/11/28 11:53:45;;;;;;;;;;;8.30;99.90;;;;;;5004028;28;19930;-67
2022/11/28 11:56:12;;;;;;;;;;;8.40;99.90;;;;;;5029949;28;19948;-67
2022/11/28 11:58:48;;;;;;;;;;;8.40;99.90;;;;;;5002594;28;20008;-67
2022/11/28 12:01:16;;;;;;;;;;;8.40;99.90;;;;;;5041883;28;19926;-71
2022/11/28 12:03:57;;;;;;;;;;;8.40;99.90;;;;;;5007638;28;20320;-70
2022/11/28 12:06:28;;;;;;;;;;;8.40;99.90;;;;;;5005294;28;20390;-68
2022/11/28 12:09:01;;;;;;;;;;;8.50;99.90;;;;;;5034234;28;20391;-70
2022/11/28 12:11:29;;;;;;;;;;;8.50;99.90;;;;;;5004356;28;19934;-69
2022/11/28 12:13:57;;;;;;;;;;;8.50;99.90;;;;;;5034096;28;19931;-68
2022/11/28 12:16:34;;;;;;;;;;;8.50;99.90;;;;;;5004598;28;19925;-67
2022/11/28 12:19:11;;;;;;;;;;;8.50;99.90;;;;;;5003683;28;20336;-66
2022/11/28 12:21:48;;;;;;;;;;;8.50;99.90;;;;;;5040904;27;19975;-68
2022/11/28 12:24:16;;;;;;;;;;;8.60;99.90;;;;;;5033150;28;19925;-67
2022/11/28 12:26:47;;;;;;;;;;;8.50;99.90;;;;;;4995443;28;19932;-67
2022/11/28 12:29:32;;;;;;;;;;;8.60;99.90;;;;;;5016688;28;19932;-67
2022/11/28 12:32:12;;;;;;;;;;;8.60;99.90;;;;;;4994068;28;19929;-66
2022/11/28 12:34:54;;;;;;;;;;;8.60;99.90;;;;;;5037084;28;19926;-66
2022/11/28 12:37:39;;;;;;;;;;;8.50;99.90;;;;;;4993813;28;20355;-69
2022/11/28 12:40:23;;;;;;;;;;;8.60;99.90;;;;;;4999286;28;19934;-67
2022/11/28 12:43:02;;;;;;;;;;;8.70;99.90;;;;;;5008320;28;19930;-66
2022/11/28 12:45:48;;;;;;;;;;;8.60;99.90;;;;;;5009626;28;20006;-65
2022/11/28 12:48:19;;;;;;;;;;;8.70;99.90;;;;;;5024293;28;19932;-66
2022/11/28 12:50:48;;;;;;;;;;;8.70;99.90;;;;;;5003470;28;19973;-65
2022/11/28 12:53:26;;;;;;;;;;;8.70;99.90;;;;;;4996844;28;20029;-64
2022/11/28 12:56:08;;;;;;;;;;;8.70;99.90;;;;;;5023121;28;19925;-67
2022/11/28 12:58:42;;;;;;;;;;;8.70;99.90;;;;;;5024231;27;19974;-64
2022/11/28 13:01:20;;;;;;;;;;;8.70;99.90;;;;;;5019904;28;19925;-80
2022/11/28 13:03:54;;;;;;;;;;;8.70;99.90;;;;;;5049949;27;19933;-64
2022/11/28 13:06:27;;;;;;;;;;;8.70;99.90;;;;;;5024087;28;19977;-67
2022/11/28 13:09:01;;;;;;;;;;;8.70;99.90;;;;;;5019103;28;19932;-67
2022/11/28 13:11:27;;;;;;;;;;;8.70;99.90;;;;;;5038932;27;20086;-71
2022/11/28 13:13:52;;;;;;;;;;;8.70;99.90;;;;;;5039085;27;20357;-69
2022/11/28 13:16:28;;;;;;;;;;;8.70;99.90;;;;;;5027499;28;19933;-68
2022/11/28 13:19:10;;;;;;;;;;;8.70;99.90;;;;;;5032561;28;19932;-72
2022/11/28 13:21:42;;;;;;;;;;;8.70;99.90;;;;;;5028124;28;19929;-67
2022/11/28 13:24:17;;;;;;;;;;;8.70;99.90;;;;;;5030140;27;20293;-66
2022/11/28 13:27:01;;;;;;;;;;;8.80;99.90;;;;;;5020358;28;19929;-68
2022/11/28 13:29:35;;;;;;;;;;;8.80;99.90;;;;;;5034277;28;20077;-69
2022/11/28 13:32:04;;;;;;;;;;;8.80;99.90;;;;;;5038709;27;20051;-66
2022/11/28 13:34:30;;;;;;;;;;;8.80;99.90;;;;;;5049351;27;20234;-66
2022/11/28 13:36:58;;;;;;;;;;;8.80;99.90;;;;;;5057706;27;19945;-67
2022/11/28 13:39:43;;;;;;;;;;;8.80;99.90;;;;;;5026704;28;19929;-67
2022/11/28 13:42:27;;;;;;;;;;;8.80;99.90;;;;;;5019453;28;19925;-69
2022/11/28 13:45:11;;;;;;;;;;;8.80;99.90;;;;;;5018126;28;20341;-66
2022/11/28 13:47:37;;;;;;;;;;;8.80;99.90;;;;;;5057638;27;19977;-75
2022/11/28 13:50:24;;;;;;;;;;;8.80;99.90;;;;;;5020988;28;19929;-66
2022/11/28 13:53:18;;;;;;;;;;;8.80;99.90;;;;;;5002861;28;19926;-66
2022/11/28 13:55:47;;;;;;;;;;;8.80;99.90;;;;;;5007793;28;20046;-66
2022/11/28 13:58:19;;;;;;;;;;;8.80;99.90;;;;;;5004597;28;19950;-67
2022/11/28 14:01:03;;;;;;;;;;;8.80;99.90;;;;;;5005272;28;19951;-67
2022/11/28 14:03:30;;;;;;;;;;;8.80;99.90;;;;;;5006525;28;20051;-66
2022/11/28 14:05:57;;;;;;;;;;;8.80;99.90;;;;;;5021505;28;19965;-68
2022/11/28 14:08:52;;;;;;;;;;;8.80;99.90;;;;;;5003033;28;20408;-66
2022/11/28 14:11:42;;;;;;;;;;;8.80;99.90;;;;;;5006913;28;20321;-67
2022/11/28 14:14:22;;;;;;;;;;;8.80;99.90;;;;;;5000005;28;20396;-66
2022/11/28 14:16:56;;;;;;;;;;;8.80;99.90;;;;;;5032070;28;20019;-66
2022/11/28 14:19:21;;;;;;;;;;;8.80;99.90;;;;;;5013066;28;19937;-66
2022/11/28 14:21:53;;;;;;;;;;;8.80;99.90;;;;;;5009764;28;19930;-68
2022/11/28 14:24:26;;;;;;;;;;;8.70;99.90;;;;;;5009586;28;20024;-67
2022/11/28 14:26:59;;;;;;;;;;;8.80;99.90;;;;;;5043065;28;19969;-66
2022/11/28 14:29:46;;;;;;;;;;;8.80;99.90;;;;;;5018045;28;19925;-66
2022/11/28 14:32:23;;;;;;;;;;;8.80;99.90;;;;;;5010626;28;19925;-66
2022/11/28 14:34:48;;;;;;;;;;;8.70;99.90;;;;;;5039720;28;19926;-66
2022/11/28 14:37:20;;;;;;;;;;;8.70;99.90;;;;;;5011194;28;20294;-66
2022/11/28 14:39:46;;;;;;;;;;;8.70;99.90;;;;;;5006032;28;19926;-66
2022/11/28 14:42:12;;;;;;;;;;;8.70;99.90;;;;;;5006605;28;20024;-66
2022/11/28 14:44:50;;;;;;;;;;;8.70;99.90;;;;;;4999817;28;20064;-66
2022/11/28 14:47:17;;;;;;;;;;;8.70;99.90;;;;;;5001927;28;19933;-68
2022/11/28 14:49:43;;;;;;;;;;;8.70;99.90;;;;;;5006018;28;19930;-72